Time;durP1;ratioP1;P1;durP2;ratioP2;P2;SDS_P1;SDS_P2;PMS_P1;PMS_P2;Temp;Humidity;BMP_temperature;BMP_pressure;BME280_temperature;BME280_humidity;BME280_pressure;Samples;Min_cycle;Max_cycle;Signal;HPM_P1;HPM_P2
2023/03/16 00:01:18;;;;;;;10.55;4.45;;;4.60;99.90;;;;;;5022000;28;20064;-70
2023/03/16 00:03:43;;;;;;;10.57;4.47;;;4.60;99.90;;;;;;5017931;28;20042;-70
2023/03/16 00:06:09;;;;;;;11.43;4.95;;;4.60;99.90;;;;;;5016107;28;20049;-70
2023/03/16 00:08:36;;;;;;;14.35;4.43;;;4.60;99.90;;;;;;5026401;28;20099;-70
2023/03/16 00:11:02;;;;;;;10.32;4.72;;;4.60;99.90;;;;;;5023178;28;20120;-70
2023/03/16 00:13:28;;;;;;;11.93;4.43;;;4.60;99.90;;;;;;5013634;28;20111;-69
2023/03/16 00:15:58;;;;;;;9.47;4.33;;;4.60;99.90;;;;;;5013183;28;21691;-70
2023/03/16 00:18:26;;;;;;;8.80;4.15;;;4.50;99.90;;;;;;5025622;28;20108;-70
2023/03/16 00:20:54;;;;;;;8.13;4.00;;;4.50;99.90;;;;;;5012856;28;20562;-70
2023/03/16 00:23:27;;;;;;;11.15;4.75;;;4.50;99.90;;;;;;5020864;28;20125;-70
2023/03/16 00:25:57;;;;;;;11.32;4.53;;;4.50;99.90;;;;;;5029255;28;20046;-70
2023/03/16 00:28:24;;;;;;;8.60;4.20;;;4.50;99.90;;;;;;5033783;28;20052;-70
2023/03/16 00:30:50;;;;;;;8.18;4.13;;;4.50;99.90;;;;;;5030135;28;20068;-70
2023/03/16 00:33:16;;;;;;;9.25;4.32;;;4.50;99.90;;;;;;5025921;28;20100;-70
2023/03/16 00:35:48;;;;;;;9.57;4.25;;;4.50;99.90;;;;;;5027475;28;20588;-70
2023/03/16 00:38:18;;;;;;;11.55;4.50;;;4.50;99.90;;;;;;5029661;28;20080;-70
2023/03/16 00:40:45;;;;;;;9.73;4.47;;;4.50;99.90;;;;;;5028867;28;20095;-69
2023/03/16 00:43:10;;;;;;;10.15;4.50;;;4.50;99.90;;;;;;5019687;28;20053;-70
2023/03/16 00:45:36;;;;;;;9.00;4.20;;;4.40;99.90;;;;;;5033679;28;20045;-70
2023/03/16 00:48:02;;;;;;;10.15;4.30;;;4.40;99.90;;;;;;5029628;28;20030;-70
2023/03/16 00:50:27;;;;;;;10.68;4.72;;;4.40;99.90;;;;;;5032563;28;20103;-70
2023/03/16 00:52:53;;;;;;;10.07;4.20;;;4.40;99.90;;;;;;5019364;28;20069;-70
2023/03/16 00:55:19;;;;;;;9.02;4.05;;;4.30;99.90;;;;;;5023352;28;20091;-70
2023/03/16 00:57:45;;;;;;;9.10;4.05;;;4.30;99.90;;;;;;5030603;28;20355;-70
2023/03/16 01:00:14;;;;;;;11.93;4.20;;;4.30;99.90;;;;;;5028934;28;20136;-70
2023/03/16 01:02:40;;;;;;;10.20;4.10;;;4.30;99.90;;;;;;5031535;28;20041;-69
2023/03/16 01:05:08;;;;;;;8.32;4.07;;;4.30;99.90;;;;;;5027331;28;20038;-70
2023/03/16 01:07:35;;;;;;;9.20;4.00;;;4.30;99.90;;;;;;5029626;28;20033;-70
2023/03/16 01:10:01;;;;;;;8.23;3.97;;;4.30;99.90;;;;;;5026067;28;20065;-70
2023/03/16 01:12:28;;;;;;;;;;;4.30;99.90;;;;;;5025120;28;20045;-70
2023/03/16 01:14:54;;;;;;;8.43;3.83;;;4.30;99.90;;;;;;5027459;28;19986;-70
2023/03/16 01:17:21;;;;;;;11.68;4.65;;;4.30;99.90;;;;;;5030853;28;20053;-70
2023/03/16 01:19:47;;;;;;;8.57;4.13;;;4.30;99.90;;;;;;5034274;28;20052;-70
2023/03/16 01:22:14;;;;;;;9.88;4.07;;;4.30;99.90;;;;;;5032815;28;20489;-70
2023/03/16 01:24:40;;;;;;;8.97;3.90;;;4.20;99.90;;;;;;5022355;28;20080;-70
2023/03/16 01:27:07;;;;;;;12.23;4.22;;;4.20;99.90;;;;;;5025949;28;20057;-69
2023/03/16 01:29:33;;;;;;;8.85;3.97;;;4.30;99.90;;;;;;5028044;28;20042;-69
2023/03/16 01:32:00;;;;;;;8.00;3.92;;;4.30;99.90;;;;;;5023170;28;20041;-69
2023/03/16 01:34:26;;;;;;;9.75;4.30;;;4.30;99.90;;;;;;5024811;28;20076;-70
2023/03/16 01:36:52;;;;;;;10.30;4.15;;;4.30;99.90;;;;;;5015848;28;20469;-70
2023/03/16 01:39:18;;;;;;;8.93;4.40;;;4.20;99.90;;;;;;5021186;28;20470;-69
2023/03/16 01:41:46;;;;;;;10.02;4.95;;;4.20;99.90;;;;;;5019641;28;20103;-69
2023/03/16 01:44:15;;;;;;;8.25;3.97;;;4.30;99.90;;;;;;5026853;28;20056;-70
2023/03/16 01:46:42;;;;;;;10.18;4.80;;;4.30;99.90;;;;;;5028969;28;20077;-70
2023/03/16 01:49:11;;;;;;;9.63;4.65;;;4.20;99.90;;;;;;5020093;28;20045;-70
2023/03/16 01:51:57;;;;;;;10.45;4.38;;;4.20;99.90;;;;;;5021571;28;20057;-70
2023/03/16 01:54:25;;;;;;;8.53;4.17;;;4.20;99.90;;;;;;5029700;28;20509;-70
2023/03/16 01:56:58;;;;;;;7.95;4.07;;;4.20;99.90;;;;;;5023823;28;20323;-69
2023/03/16 01:59:30;;;;;;;8.95;4.32;;;4.20;99.90;;;;;;5021104;28;20064;-70
2023/03/16 02:01:57;;;;;;;10.93;4.82;;;4.20;99.90;;;;;;5018736;28;20080;-70
2023/03/16 02:07:57;;;;;;;8.38;4.80;;;4.20;99.90;;;;;;5023372;28;20060;-70
2023/03/16 02:10:26;;;;;;;8.43;4.30;;;4.20;99.90;;;;;;5022681;28;20124;-70
2023/03/16 02:12:52;;;;;;;7.60;4.40;;;4.20;99.90;;;;;;5016489;28;20052;-70
2023/03/16 02:15:18;;;;;;;7.63;3.95;;;4.10;99.90;;;;;;5020817;28;20095;-69
2023/03/16 02:17:48;;;;;;;9.48;4.70;;;4.20;99.90;;;;;;5023410;28;20073;-70
2023/03/16 02:20:41;;;;;;;9.88;4.53;;;4.10;99.90;;;;;;5022177;28;20038;-70
2023/03/16 02:23:17;;;;;;;12.85;6.10;;;4.10;99.90;;;;;;5021299;28;20060;-70
2023/03/16 02:26:09;;;;;;;8.43;4.38;;;4.10;99.90;;;;;;5028859;28;20473;-70
2023/03/16 02:28:56;;;;;;;8.85;4.57;;;4.10;99.90;;;;;;5024100;28;20053;-70
2023/03/16 02:31:22;;;;;;;9.18;4.70;;;4.10;99.90;;;;;;5024382;28;20045;-70
2023/03/16 02:33:49;;;;;;;8.85;4.47;;;4.10;99.90;;;;;;5023863;28;20053;-70
2023/03/16 02:36:16;;;;;;;;;;;4.10;99.90;;;;;;5024438;28;20069;-70
2023/03/16 02:38:42;;;;;;;10.43;4.38;;;4.10;99.90;;;;;;5023896;28;20412;-70
2023/03/16 02:41:17;;;;;;;8.07;4.07;;;4.00;99.90;;;;;;5012568;28;20095;-70
2023/03/16 02:43:56;;;;;;;10.52;4.60;;;4.10;99.90;;;;;;5025376;28;20041;-70
2023/03/16 02:46:25;;;;;;;10.38;4.40;;;4.10;99.90;;;;;;5025131;28;20037;-70
2023/03/16 02:49:01;;;;;;;8.43;4.80;;;4.10;99.90;;;;;;5024163;28;20402;-70
2023/03/16 02:51:28;;;;;;;6.85;4.53;;;4.10;99.90;;;;;;5016949;28;20069;-70
2023/03/16 02:53:54;;;;;;;9.13;4.75;;;4.10;99.90;;;;;;5024235;28;20049;-71
2023/03/16 02:56:21;;;;;;;13.00;4.72;;;4.10;99.90;;;;;;5018149;28;20451;-70
2023/03/16 02:58:47;;;;;;;10.45;4.90;;;4.10;99.90;;;;;;5024471;28;20473;-70
2023/03/16 03:01:12;;;;;;;9.48;5.03;;;4.10;99.90;;;;;;5018722;28;20110;-70
2023/03/16 03:03:38;;;;;;;11.65;4.72;;;4.10;99.90;;;;;;5012691;28;20144;-70
2023/03/16 03:06:04;;;;;;;8.18;4.72;;;4.10;99.90;;;;;;5028239;28;20996;-70
2023/03/16 03:08:31;;;;;;;7.95;4.60;;;4.10;99.90;;;;;;5027891;28;20048;-70
2023/03/16 03:10:57;;;;;;;9.00;4.63;;;4.10;99.90;;;;;;5023371;28;20121;-71
2023/03/16 03:13:23;;;;;;;9.40;4.68;;;4.10;99.90;;;;;;5027722;28;20141;-70
2023/03/16 03:15:49;;;;;;;10.13;4.70;;;4.10;99.90;;;;;;5029860;28;20129;-70
2023/03/16 03:18:14;;;;;;;9.43;5.18;;;4.10;99.90;;;;;;5026658;28;20120;-70
2023/03/16 03:20:40;;;;;;;9.55;5.20;;;4.10;99.90;;;;;;5014136;28;20046;-70
2023/03/16 03:23:06;;;;;;;7.68;4.70;;;4.10;99.90;;;;;;5017093;28;20099;-70
2023/03/16 03:25:33;;;;;;;9.88;5.22;;;4.10;99.90;;;;;;5026125;28;20045;-70
2023/03/16 03:28:00;;;;;;;11.35;5.05;;;4.10;99.90;;;;;;5023583;28;20427;-70
2023/03/16 03:30:26;;;;;;;7.57;4.57;;;4.20;99.90;;;;;;5025526;28;20033;-70
2023/03/16 03:32:52;;;;;;;10.63;5.50;;;4.20;99.90;;;;;;5025574;28;20103;-70
2023/03/16 03:35:18;;;;;;;11.55;5.38;;;4.20;99.90;;;;;;5026896;28;20046;-70
2023/03/16 03:37:44;;;;;;;8.13;4.60;;;4.20;99.90;;;;;;5022916;28;20045;-70
2023/03/16 03:40:13;;;;;;;8.88;4.80;;;4.20;99.90;;;;;;5025733;28;20076;-70
2023/03/16 03:42:39;;;;;;;10.02;5.32;;;4.10;99.90;;;;;;5025955;28;20127;-70
2023/03/16 03:45:06;;;;;;;8.77;5.15;;;4.20;99.90;;;;;;5017095;28;20080;-70
2023/03/16 03:47:32;;;;;;;9.20;5.07;;;4.20;99.90;;;;;;5028282;28;20048;-70
2023/03/16 03:49:58;;;;;;;10.90;5.07;;;4.20;99.90;;;;;;5027087;28;20510;-70
2023/03/16 03:52:24;;;;;;;9.73;5.28;;;4.10;99.90;;;;;;5024773;28;20120;-69
2023/03/16 03:54:50;;;;;;;10.82;5.40;;;4.20;99.90;;;;;;5024374;28;20045;-70
2023/03/16 03:57:16;;;;;;;7.53;4.93;;;4.20;99.90;;;;;;5018905;28;20056;-70
2023/03/16 03:59:42;;;;;;;10.13;5.25;;;4.20;99.90;;;;;;5026522;28;20041;-70
2023/03/16 04:02:09;;;;;;;9.18;5.25;;;4.20;99.90;;;;;;5023754;28;20080;-70
2023/03/16 04:04:35;;;;;;;11.38;5.60;;;4.20;99.90;;;;;;5020736;28;20049;-70
2023/03/16 04:07:02;;;;;;;8.98;5.47;;;4.20;99.90;;;;;;5022819;28;20029;-70
2023/03/16 04:09:28;;;;;;;7.53;4.93;;;4.20;99.90;;;;;;5024606;28;20053;-70
2023/03/16 04:11:56;;;;;;;11.93;5.65;;;4.20;99.90;;;;;;5022663;28;20037;-70
2023/03/16 04:14:22;;;;;;;;;;;4.20;99.90;;;;;;5026630;28;20106;-70
2023/03/16 04:16:47;;;;;;;10.95;5.72;;;4.10;99.90;;;;;;5025238;28;19925;-70
2023/03/16 04:19:16;;;;;;;10.90;5.80;;;4.20;99.90;;;;;;5024528;28;20045;-70
2023/03/16 04:21:41;;;;;;;11.27;6.20;;;4.20;99.90;;;;;;5017251;28;20069;-70
2023/03/16 04:24:07;;;;;;;10.32;5.75;;;4.20;99.90;;;;;;5026254;28;20119;-70
2023/03/16 04:26:33;;;;;;;11.57;5.70;;;4.20;99.90;;;;;;5021030;28;20071;-69
2023/03/16 04:28:59;;;;;;;9.80;6.18;;;4.20;99.90;;;;;;5022478;28;20557;-70
2023/03/16 04:31:25;;;;;;;11.23;5.93;;;4.20;99.90;;;;;;5024408;28;20041;-70
2023/03/16 04:33:53;;;;;;;11.98;5.72;;;4.20;99.90;;;;;;5019150;28;20496;-69
2023/03/16 04:36:22;;;;;;;10.23;6.03;;;4.20;99.90;;;;;;5016607;28;20057;-70
2023/03/16 04:38:48;;;;;;;11.55;6.60;;;4.20;99.90;;;;;;5013706;28;20595;-70
2023/03/16 04:41:15;;;;;;;10.80;6.20;;;4.20;99.90;;;;;;5013017;28;20049;-69
2023/03/16 04:43:42;;;;;;;10.25;6.25;;;4.20;99.90;;;;;;5021068;28;20073;-70
2023/03/16 04:46:08;;;;;;;9.80;6.20;;;4.20;99.90;;;;;;5017413;28;20083;-70
2023/03/16 04:48:34;;;;;;;9.30;6.10;;;4.20;99.90;;;;;;5017344;28;20088;-70
2023/03/16 04:51:00;;;;;;;10.02;6.38;;;4.20;99.90;;;;;;5015386;28;20737;-70
2023/03/16 04:53:26;;;;;;;10.45;6.53;;;4.20;99.90;;;;;;5025504;28;20041;-70
2023/03/16 04:55:52;;;;;;;9.90;6.43;;;4.20;99.90;;;;;;5016480;28;20069;-70
2023/03/16 04:58:18;;;;;;;9.38;6.22;;;4.20;99.90;;;;;;5024956;28;20088;-70
2023/03/16 05:00:44;;;;;;;10.15;6.45;;;4.20;99.90;;;;;;5021370;28;20124;-70
2023/03/16 05:03:10;;;;;;;9.07;6.13;;;4.20;99.90;;;;;;5025548;28;20540;-69
2023/03/16 05:05:41;;;;;;;8.50;5.90;;;4.20;99.90;;;;;;5026031;28;20088;-70
2023/03/16 05:08:07;;;;;;;7.97;6.00;;;4.20;99.90;;;;;;5018700;28;20496;-70
2023/03/16 05:10:33;;;;;;;9.65;6.43;;;4.20;99.90;;;;;;5046472;28;20496;-69
2023/03/16 05:12:59;;;;;;;15.80;6.80;;;4.20;99.90;;;;;;5030328;28;20124;-69
2023/03/16 05:15:28;;;;;;;11.30;6.53;;;4.20;99.90;;;;;;5033148;28;20038;-70
2023/03/16 05:17:54;;;;;;;10.38;6.72;;;4.20;99.90;;;;;;5026193;28;20140;-70
2023/03/16 05:20:21;;;;;;;8.87;6.60;;;4.20;99.90;;;;;;5028909;28;20072;-69
2023/03/16 05:22:47;;;;;;;8.93;6.00;;;4.20;99.90;;;;;;5024688;28;20046;-70
2023/03/16 05:25:14;;;;;;;9.57;5.82;;;4.20;99.90;;;;;;5029488;28;20124;-70
2023/03/16 05:27:46;;;;;;;10.98;6.13;;;4.20;99.90;;;;;;5027160;28;20369;-69
2023/03/16 05:30:15;;;;;;;9.68;6.03;;;4.20;99.90;;;;;;5019597;28;20099;-70
2023/03/16 05:32:41;;;;;;;10.55;6.05;;;4.10;99.90;;;;;;5025335;28;20044;-69
2023/03/16 05:35:07;;;;;;;9.55;6.10;;;4.20;99.90;;;;;;5031155;28;20045;-69
2023/03/16 05:37:36;;;;;;;10.23;6.13;;;4.20;99.90;;;;;;5024342;28;20484;-69
2023/03/16 05:40:15;;;;;;;10.63;6.50;;;4.10;99.90;;;;;;5018056;28;20069;-69
2023/03/16 05:42:45;;;;;;;8.77;5.72;;;4.20;99.90;;;;;;5022726;28;20045;-70
2023/03/16 05:45:13;;;;;;;8.02;5.85;;;4.20;99.90;;;;;;5029313;28;20037;-70
2023/03/16 05:47:39;;;;;;;10.57;5.93;;;4.20;99.90;;;;;;5021219;28;20068;-70
2023/03/16 05:50:10;;;;;;;8.80;5.80;;;4.20;99.90;;;;;;5026310;28;20060;-69
2023/03/16 05:52:37;;;;;;;10.27;5.55;;;4.20;99.90;;;;;;5025052;28;20045;-70
2023/03/16 05:55:04;;;;;;;8.35;5.80;;;4.20;99.90;;;;;;5027087;28;20084;-69
2023/03/16 05:57:30;;;;;;;11.88;6.25;;;4.20;99.90;;;;;;5024585;28;20041;-69
2023/03/16 05:59:56;;;;;;;8.70;5.47;;;4.20;99.90;;;;;;5017719;28;20049;-70
2023/03/16 06:02:22;;;;;;;10.30;5.90;;;4.20;99.90;;;;;;5027697;28;20064;-70
2023/03/16 06:04:47;;;;;;;10.27;5.68;;;4.20;99.90;;;;;;5026116;28;20128;-69
2023/03/16 06:07:13;;;;;;;10.55;6.15;;;4.20;99.90;;;;;;5022714;28;20045;-69
2023/03/16 06:09:39;;;;;;;8.77;5.68;;;4.20;99.90;;;;;;5018996;28;20041;-70
2023/03/16 06:12:05;;;;;;;8.25;5.78;;;4.20;99.90;;;;;;5025007;28;20053;-70
2023/03/16 06:14:30;;;;;;;9.07;5.47;;;4.20;99.90;;;;;;5030576;28;20077;-70
2023/03/16 06:16:56;;;;;;;10.43;5.60;;;4.20;99.90;;;;;;5026201;28;20109;-69
2023/03/16 06:19:22;;;;;;;8.73;5.45;;;4.20;99.90;;;;;;5021206;28;20161;-69
2023/03/16 06:21:47;;;;;;;8.75;5.30;;;4.20;99.90;;;;;;5024713;28;20046;-69
2023/03/16 06:24:13;;;;;;;11.50;6.47;;;4.20;99.90;;;;;;5029624;28;20053;-70
2023/03/16 06:26:38;;;;;;;10.15;6.20;;;4.30;99.90;;;;;;5019929;28;20033;-70
2023/03/16 06:29:04;;;;;;;9.80;5.97;;;4.30;99.90;;;;;;5023156;28;20065;-70
2023/03/16 06:31:32;;;;;;;9.50;6.28;;;4.30;99.90;;;;;;5025348;28;20042;-69
2023/03/16 06:33:58;;;;;;;;;;;4.30;99.90;;;;;;5020810;28;20134;-70
2023/03/16 06:36:23;;;;;;;9.27;5.72;;;4.40;99.90;;;;;;5022427;28;19921;-70
2023/03/16 06:38:49;;;;;;;8.30;5.75;;;4.30;99.90;;;;;;5034862;28;20577;-70
2023/03/16 06:41:14;;;;;;;9.43;5.97;;;4.40;99.90;;;;;;5024380;28;20444;-70
2023/03/16 06:43:41;;;;;;;8.48;5.85;;;4.40;99.90;;;;;;5025285;28;20516;-69
2023/03/16 06:46:06;;;;;;;8.90;5.63;;;4.40;99.90;;;;;;5019382;28;20095;-70
2023/03/16 06:48:32;;;;;;;8.23;5.57;;;4.40;99.90;;;;;;5021174;28;20037;-69
2023/03/16 06:50:58;;;;;;;9.40;5.88;;;4.40;99.90;;;;;;5014298;28;20057;-71
2023/03/16 06:53:24;;;;;;;10.02;6.10;;;4.50;99.90;;;;;;5018454;28;20041;-69
2023/03/16 06:55:50;;;;;;;8.47;5.97;;;4.50;99.90;;;;;;5019363;28;20637;-69
2023/03/16 06:58:16;;;;;;;8.68;5.38;;;4.40;99.90;;;;;;5018806;28;20088;-69
2023/03/16 07:00:42;;;;;;;8.07;5.57;;;4.50;99.90;;;;;;5023801;28;20562;-69
2023/03/16 07:03:07;;;;;;;10.95;5.60;;;4.50;99.90;;;;;;5029289;28;20095;-69
2023/03/16 07:05:33;;;;;;;10.05;5.57;;;4.40;99.90;;;;;;5025505;28;20136;-69
2023/03/16 07:08:00;;;;;;;8.27;5.88;;;4.50;99.90;;;;;;5023872;28;20041;-69
2023/03/16 07:10:26;;;;;;;8.18;5.63;;;4.60;99.90;;;;;;5021051;28;20045;-69
2023/03/16 07:12:52;;;;;;;8.30;5.65;;;4.60;99.90;;;;;;5023894;28;20400;-69
2023/03/16 07:15:18;;;;;;;8.02;6.03;;;4.60;99.90;;;;;;5021313;28;20046;-69
2023/03/16 07:17:44;;;;;;;10.93;5.75;;;4.70;99.90;;;;;;5024463;28;20045;-69
2023/03/16 07:20:11;;;;;;;8.88;5.32;;;4.70;99.90;;;;;;5024815;28;20045;-70
2023/03/16 07:22:38;;;;;;;10.82;5.40;;;4.70;99.90;;;;;;5024595;28;20919;-70
2023/03/16 07:25:05;;;;;;;8.38;5.25;;;4.70;99.90;;;;;;5027906;28;20045;-69
2023/03/16 07:27:31;;;;;;;8.25;5.15;;;4.70;99.90;;;;;;5027107;28;20140;-70
2023/03/16 07:29:57;;;;;;;6.47;4.93;;;4.80;99.90;;;;;;5021365;28;20109;-69
2023/03/16 07:32:22;;;;;;;8.82;5.70;;;4.80;99.90;;;;;;5025075;28;20093;-69
2023/03/16 07:34:49;;;;;;;7.15;5.15;;;4.80;99.90;;;;;;5020494;28;20037;-69
2023/03/16 07:37:17;;;;;;;7.35;5.10;;;4.90;99.90;;;;;;5026865;28;20477;-69
2023/03/16 07:39:43;;;;;;;7.57;5.55;;;4.90;99.90;;;;;;5026453;28;20046;-69
2023/03/16 07:42:09;;;;;;;9.90;5.18;;;4.90;99.90;;;;;;5027365;28;20053;-69
2023/03/16 07:44:34;;;;;;;9.50;5.60;;;5.00;99.90;;;;;;5021160;28;20069;-69
2023/03/16 07:47:00;;;;;;;10.73;4.90;;;5.00;99.90;;;;;;5027279;28;20131;-69
2023/03/16 07:49:26;;;;;;;7.20;5.07;;;5.00;99.90;;;;;;5028003;28;20175;-69
2023/03/16 07:51:52;;;;;;;8.40;5.65;;;5.00;99.90;;;;;;5021851;28;20045;-68
2023/03/16 07:54:18;;;;;;;9.07;5.38;;;5.00;99.90;;;;;;5021776;28;20052;-69
2023/03/16 07:56:44;;;;;;;8.05;5.45;;;5.10;99.90;;;;;;5021446;28;20045;-69
2023/03/16 07:59:11;;;;;;;9.73;5.45;;;5.10;99.90;;;;;;5011559;28;20042;-69
2023/03/16 08:01:36;;;;;;;7.87;5.40;;;5.10;99.90;;;;;;5024657;28;20049;-69
2023/03/16 08:04:02;;;;;;;8.88;5.50;;;5.10;99.90;;;;;;5026635;28;20033;-69
2023/03/16 08:06:28;;;;;;;9.20;5.13;;;5.10;99.90;;;;;;5026444;28;20052;-69
2023/03/16 08:08:53;;;;;;;7.93;5.50;;;5.20;99.90;;;;;;5016677;28;20049;-68
2023/03/16 08:11:22;;;;;;;8.45;4.85;;;5.20;99.90;;;;;;5019269;28;20057;-69
2023/03/16 08:13:55;;;;;;;8.13;5.22;;;5.20;99.90;;;;;;5025181;28;20056;-69
2023/03/16 08:16:25;;;;;;;9.63;5.68;;;5.30;99.90;;;;;;5023965;28;20053;-70
2023/03/16 08:18:51;;;;;;;8.95;5.72;;;5.30;99.90;;;;;;5018583;28;20060;-69
2023/03/16 08:21:18;;;;;;;8.68;5.45;;;5.30;99.90;;;;;;5027161;28;20034;-67
2023/03/16 08:23:48;;;;;;;10.18;5.20;;;5.40;99.90;;;;;;5022406;28;20064;-69
2023/03/16 08:26:18;;;;;;;9.73;6.05;;;5.40;99.90;;;;;;5020330;28;20054;-70
2023/03/16 08:28:45;;;;;;;7.38;5.53;;;5.50;99.90;;;;;;5023216;28;20160;-70
2023/03/16 08:31:12;;;;;;;7.35;5.43;;;5.60;99.90;;;;;;5028389;28;20056;-69
2023/03/16 08:33:41;;;;;;;7.63;5.90;;;5.60;99.90;;;;;;5027831;28;20148;-69
2023/03/16 08:36:10;;;;;;;11.57;6.47;;;5.70;99.90;;;;;;5025477;28;20045;-70
2023/03/16 08:38:37;;;;;;;10.43;5.85;;;5.70;99.90;;;;;;5027028;28;20057;-70
2023/03/16 08:41:03;;;;;;;9.07;5.95;;;5.80;99.90;;;;;;5026053;28;20124;-69
2023/03/16 08:43:29;;;;;;;9.57;5.75;;;5.80;99.90;;;;;;5029992;28;20171;-70
2023/03/16 08:45:55;;;;;;;10.02;5.93;;;5.90;99.90;;;;;;5029408;28;20455;-74
2023/03/16 08:48:21;;;;;;;10.07;6.05;;;5.90;99.90;;;;;;5024077;28;20050;-70
2023/03/16 08:50:47;;;;;;;9.55;6.07;;;5.90;99.90;;;;;;5045135;28;20045;-71
2023/03/16 08:53:13;;;;;;;8.27;6.00;;;5.90;99.90;;;;;;5027904;28;20044;-71
2023/03/16 08:55:43;;;;;;;8.68;6.07;;;5.90;99.90;;;;;;5034392;28;20045;-71
2023/03/16 08:58:10;;;;;;;8.57;6.13;;;6.00;99.90;;;;;;5032923;28;20191;-69
2023/03/16 09:00:37;;;;;;;10.48;6.22;;;6.00;99.90;;;;;;5024551;28;20050;-70
2023/03/16 09:03:04;;;;;;;8.18;6.00;;;5.90;99.90;;;;;;5020759;28;20053;-69
2023/03/16 09:05:30;;;;;;;9.20;6.45;;;6.00;99.90;;;;;;5014867;28;20081;-72
2023/03/16 09:07:56;;;;;;;10.05;6.85;;;5.90;99.90;;;;;;5027978;28;20128;-69
2023/03/16 09:10:22;;;;;;;9.90;6.00;;;6.00;99.90;;;;;;5020483;28;20481;-69
2023/03/16 09:12:52;;;;;;;9.57;6.95;;;6.00;99.90;;;;;;5040142;28;20536;-69
2023/03/16 09:15:19;;;;;;;12.15;6.93;;;6.10;99.90;;;;;;5022535;28;20034;-68
2023/03/16 09:17:45;;;;;;;;;;;6.10;99.90;;;;;;5028517;28;20083;-70
2023/03/16 09:20:15;;;;;;;9.48;6.30;;;6.10;99.90;;;;;;5029458;28;20384;-68
2023/03/16 09:22:40;;;;;;;12.48;6.70;;;6.10;99.90;;;;;;5022058;28;20456;-69
2023/03/16 09:25:09;;;;;;;8.73;6.38;;;6.10;99.90;;;;;;5012924;28;20129;-70
2023/03/16 09:27:36;;;;;;;8.68;6.50;;;6.10;99.90;;;;;;5028326;28;20050;-70
2023/03/16 09:30:04;;;;;;;9.77;7.22;;;6.20;99.90;;;;;;5027120;28;20060;-73
2023/03/16 09:32:29;;;;;;;9.60;7.15;;;6.20;99.90;;;;;;5014338;28;20092;-70
2023/03/16 09:34:55;;;;;;;10.38;7.25;;;6.20;99.90;;;;;;5019905;28;20500;-70
2023/03/16 09:37:22;;;;;;;9.55;6.88;;;6.20;99.90;;;;;;5033017;28;20416;-70
2023/03/16 09:39:48;;;;;;;10.95;7.20;;;6.20;99.90;;;;;;5033456;28;20164;-70
2023/03/16 09:42:22;;;;;;;9.27;7.10;;;6.20;99.90;;;;;;5031520;28;20504;-70
2023/03/16 09:45:09;;;;;;;10.05;7.10;;;6.20;99.90;;;;;;5016805;28;20048;-70
2023/03/16 09:47:37;;;;;;;9.65;7.00;;;6.30;99.90;;;;;;5032564;28;20080;-70
2023/03/16 09:50:08;;;;;;;9.38;7.47;;;6.40;99.90;;;;;;5031390;28;20053;-70
2023/03/16 09:52:48;;;;;;;10.85;7.40;;;6.40;99.90;;;;;;5030629;28;20045;-70
2023/03/16 09:55:30;;;;;;;10.40;7.65;;;6.40;99.90;;;;;;5032021;28;20478;-70
2023/03/16 09:57:58;;;;;;;10.43;7.25;;;6.40;99.90;;;;;;5033733;28;20404;-70
2023/03/16 10:00:29;;;;;;;9.25;6.72;;;6.40;99.90;;;;;;5034567;28;20045;-70
2023/03/16 10:03:28;;;;;;;12.30;7.60;;;6.50;99.90;;;;;;5020283;28;20089;-71
2023/03/16 10:06:03;;;;;;;11.13;7.20;;;6.50;99.90;;;;;;5017553;28;20054;-69
2023/03/16 10:09:02;;;;;;;11.20;7.25;;;6.50;99.90;;;;;;5013739;28;20045;-69
2023/03/16 10:11:37;;;;;;;10.93;7.50;;;6.50;99.90;;;;;;5034664;28;20049;-70
2023/03/16 10:14:16;;;;;;;11.02;6.93;;;6.50;99.90;;;;;;5026544;28;20048;-69
2023/03/16 10:17:03;;;;;;;8.57;7.00;;;6.50;99.90;;;;;;5011686;28;20046;-69
2023/03/16 10:19:36;;;;;;;;;;;6.50;99.90;;;;;;5013636;28;20111;-70
2023/03/16 10:22:14;;;;;;;10.13;7.20;;;6.50;99.90;;;;;;5013134;28;20008;-69
2023/03/16 10:24:59;;;;;;;9.90;7.38;;;6.50;99.90;;;;;;5019224;28;20067;-69
2023/03/16 10:27:35;;;;;;;8.95;6.85;;;6.50;99.90;;;;;;5029810;28;20041;-69
2023/03/16 10:30:06;;;;;;;10.40;7.50;;;6.50;99.90;;;;;;5032700;28;20033;-69
2023/03/16 10:32:34;;;;;;;12.55;7.68;;;6.50;99.90;;;;;;5029464;28;20046;-69
2023/03/16 10:35:39;;;;;;;10.13;7.30;;;6.50;99.90;;;;;;5032703;28;20046;-70
2023/03/16 10:38:07;;;;;;;8.57;6.93;;;6.50;99.90;;;;;;5028701;28;20546;-70
2023/03/16 10:40:37;;;;;;;9.77;7.50;;;6.50;99.90;;;;;;5032360;28;20048;-70
2023/03/16 10:43:12;;;;;;;10.43;6.97;;;6.50;99.90;;;;;;5026904;28;20049;-69
2023/03/16 10:45:39;;;;;;;11.18;7.65;;;6.50;99.90;;;;;;5025431;28;20094;-69
2023/03/16 10:48:14;;;;;;;11.32;7.55;;;6.50;99.90;;;;;;5024047;28;20128;-70
2023/03/16 10:50:43;;;;;;;11.20;7.13;;;6.60;99.90;;;;;;5032515;28;20040;-70
2023/03/16 10:53:37;;;;;;;10.30;6.72;;;6.50;99.90;;;;;;5022961;28;20075;-69
2023/03/16 10:56:12;;;;;;;10.38;6.95;;;6.60;99.90;;;;;;5023207;28;20128;-69
2023/03/16 10:58:41;;;;;;;11.57;7.00;;;6.60;99.90;;;;;;5031493;28;20041;-70
2023/03/16 11:01:16;;;;;;;8.30;6.53;;;6.70;99.90;;;;;;5028840;28;20386;-69
2023/03/16 11:03:50;;;;;;;9.75;7.05;;;6.70;99.90;;;;;;5030236;28;20136;-69
2023/03/16 11:06:25;;;;;;;8.80;6.25;;;6.70;99.90;;;;;;5027564;28;20046;-70
2023/03/16 11:08:52;;;;;;;10.75;7.03;;;6.80;99.90;;;;;;5023759;28;20056;-70
2023/03/16 11:11:28;;;;;;;10.45;6.60;;;6.70;99.90;;;;;;5027467;28;20129;-70
2023/03/16 11:13:56;;;;;;;12.02;7.18;;;6.70;99.90;;;;;;5025694;28;20045;-70
2023/03/16 11:16:38;;;;;;;8.50;6.57;;;6.80;99.90;;;;;;5012853;28;20053;-70
2023/03/16 11:19:22;;;;;;;9.20;6.30;;;6.80;99.90;;;;;;5021380;28;20056;-70
2023/03/16 11:21:55;;;;;;;10.10;6.50;;;6.80;99.90;;;;;;5027659;28;20049;-69
2023/03/16 11:24:55;;;;;;;12.07;6.35;;;6.90;99.90;;;;;;5029157;28;20072;-69
2023/03/16 11:27:54;;;;;;;9.65;6.57;;;6.90;99.90;;;;;;5028566;28;20060;-68
2023/03/16 11:30:38;;;;;;;7.90;6.10;;;6.90;99.90;;;;;;5027907;28;20499;-68
2023/03/16 11:33:12;;;;;;;9.85;6.72;;;6.90;99.90;;;;;;5030084;28;20520;-68
2023/03/16 11:35:47;;;;;;;8.73;5.95;;;6.90;99.90;;;;;;5028482;28;20045;-69
2023/03/16 11:38:35;;;;;;;8.70;6.20;;;7.00;99.90;;;;;;5027120;28;20049;-68
2023/03/16 11:41:23;;;;;;;9.73;6.10;;;7.00;99.90;;;;;;5022055;28;20040;-68
2023/03/16 11:43:55;;;;;;;8.40;6.43;;;7.00;99.90;;;;;;5010423;28;20141;-69
2023/03/16 11:46:35;;;;;;;7.63;6.10;;;7.10;99.90;;;;;;5011938;28;20065;-68
2023/03/16 11:49:23;;;;;;;9.90;6.10;;;7.10;99.90;;;;;;5009825;28;20057;-68
2023/03/16 11:52:05;;;;;;;8.23;5.50;;;7.10;99.90;;;;;;5013556;28;20056;-69
2023/03/16 11:55:03;;;;;;;9.70;5.97;;;7.20;99.90;;;;;;5011864;28;20640;-69
2023/03/16 11:57:53;;;;;;;7.43;5.75;;;7.20;99.90;;;;;;5020096;28;20057;-69
2023/03/16 12:01:00;;;;;;;8.40;5.30;;;7.40;99.90;;;;;;5011422;28;20062;-69
2023/03/16 12:04:00;;;;;;;8.63;5.72;;;7.50;99.90;;;;;;5041119;28;20123;-69
2023/03/16 12:06:39;;;;;;;9.05;5.72;;;7.50;99.90;;;;;;5030339;28;20046;-69
2023/03/16 12:09:29;;;;;;;8.25;5.65;;;7.60;99.90;;;;;;5030938;28;20428;-68
2023/03/16 12:12:27;;;;;;;9.55;5.70;;;7.60;99.90;;;;;;5029591;28;20400;-69
2023/03/16 12:15:23;;;;;;;8.45;5.30;;;7.70;99.90;;;;;;5007206;28;20049;-69
2023/03/16 12:17:53;;;;;;;8.43;4.85;;;7.70;99.90;;;;;;5008034;28;20058;-69
2023/03/16 12:20:23;;;;;;;8.75;5.30;;;7.80;99.90;;;;;;5030489;28;20117;-69
2023/03/16 12:23:08;;;;;;;8.13;5.25;;;7.80;99.90;;;;;;5030454;28;20056;-69
2023/03/16 12:25:42;;;;;;;7.63;5.07;;;7.90;99.90;;;;;;5029971;28;20504;-69
2023/03/16 12:28:28;;;;;;;8.35;5.22;;;8.00;99.90;;;;;;5030201;28;20485;-69
2023/03/16 12:30:53;;;;;;;6.72;5.30;;;8.10;99.90;;;;;;5027199;28;20091;-69
2023/03/16 12:33:28;;;;;;;7.57;4.55;;;8.20;99.90;;;;;;5028978;28;20049;-69
2023/03/16 12:36:03;;;;;;;7.60;5.00;;;8.30;99.90;;;;;;5028910;28;20050;-69
2023/03/16 12:38:37;;;;;;;7.65;5.55;;;8.40;99.90;;;;;;5029458;28;20553;-68
2023/03/16 12:41:25;;;;;;;7.60;5.43;;;8.60;99.90;;;;;;5029393;28;20057;-69
2023/03/16 12:44:12;;;;;;;8.55;5.45;;;8.70;99.90;;;;;;5029740;28;20041;-69
2023/03/16 12:46:52;;;;;;;8.45;5.45;;;8.70;99.90;;;;;;5027234;28;20413;-69
2023/03/16 12:49:19;;;;;;;6.68;5.05;;;8.80;99.90;;;;;;5020001;28;20184;-69
2023/03/16 12:51:47;;;;;;;8.27;6.10;;;8.80;99.90;;;;;;5030530;28;20045;-69
2023/03/16 12:54:24;;;;;;;8.63;5.32;;;8.90;99.90;;;;;;5018527;28;20053;-68
2023/03/16 12:57:04;;;;;;;8.25;5.35;;;9.00;99.90;;;;;;5022405;28;20508;-68
2023/03/16 12:59:41;;;;;;;8.23;5.07;;;9.00;99.90;;;;;;5021601;28;20215;-69
2023/03/16 13:02:20;;;;;;;7.65;5.13;;;9.00;99.90;;;;;;5019883;28;20505;-68
2023/03/16 13:04:48;;;;;;;7.63;5.03;;;9.00;99.90;;;;;;5027469;28;20484;-69
2023/03/16 13:07:23;;;;;;;7.95;5.20;;;9.00;99.90;;;;;;5021721;28;20081;-69
2023/03/16 13:10:12;;;;;;;6.68;4.97;;;9.10;99.90;;;;;;5024698;28;20045;-70
2023/03/16 13:12:40;;;;;;;7.03;4.65;;;9.10;99.90;;;;;;5027792;28;20053;-70
2023/03/16 13:15:22;;;;;;;8.35;4.85;;;9.00;99.90;;;;;;5009411;28;20559;-71